sensor_id;sensor_type;location;lat;lon;timestamp;P1;durP1;ratioP1;P2;durP2;ratioP2
908;SDS011;441;51.192;6.788;2022-11-15T00:00:16;5.60;;;5.20;;
908;SDS011;441;51.192;6.788;2022-11-15T00:02:43;5.50;;;5.17;;
908;SDS011;441;51.192;6.788;2022-11-15T00:05:11;5.50;;;5.10;;
908;SDS011;441;51.192;6.788;2022-11-15T00:07:38;6.30;;;5.70;;
908;SDS011;441;51.192;6.788;2022-11-15T00:10:05;5.10;;;4.90;;
908;SDS011;441;51.192;6.788;2022-11-15T00:12:33;5.23;;;4.80;;
908;SDS011;441;51.192;6.788;2022-11-15T00:14:59;4.80;;;4.60;;
908;SDS011;441;51.192;6.788;2022-11-15T00:17:27;5.27;;;4.87;;
908;SDS011;441;51.192;6.788;2022-11-15T00:19:54;5.83;;;5.60;;
908;SDS011;441;51.192;6.788;2022-11-15T00:22:23;4.87;;;4.67;;
908;SDS011;441;51.192;6.788;2022-11-15T00:24:50;4.73;;;4.53;;
908;SDS011;441;51.192;6.788;2022-11-15T00:27:18;5.03;;;4.80;;
908;SDS011;441;51.192;6.788;2022-11-15T00:29:46;4.67;;;4.37;;
908;SDS011;441;51.192;6.788;2022-11-15T00:32:13;4.50;;;4.30;;
908;SDS011;441;51.192;6.788;2022-11-15T00:34:39;4.80;;;4.60;;
908;SDS011;441;51.192;6.788;2022-11-15T00:37:06;5.07;;;4.87;;
908;SDS011;441;51.192;6.788;2022-11-15T00:39:36;5.33;;;5.13;;
908;SDS011;441;51.192;6.788;2022-11-15T00:42:03;5.70;;;5.30;;
908;SDS011;441;51.192;6.788;2022-11-15T00:44:31;5.87;;;5.57;;
908;SDS011;441;51.192;6.788;2022-11-15T00:46:58;5.33;;;5.03;;
908;SDS011;441;51.192;6.788;2022-11-15T00:49:25;4.33;;;4.13;;
908;SDS011;441;51.192;6.788;2022-11-15T00:51:53;4.00;;;3.90;;
908;SDS011;441;51.192;6.788;2022-11-15T00:54:19;5.57;;;5.27;;
908;SDS011;441;51.192;6.788;2022-11-15T00:56:47;4.13;;;4.03;;
908;SDS011;441;51.192;6.788;2022-11-15T00:59:14;4.30;;;4.20;;
908;SDS011;441;51.192;6.788;2022-11-15T01:01:41;4.90;;;4.70;;
908;SDS011;441;51.192;6.788;2022-11-15T01:04:09;3.90;;;3.80;;
908;SDS011;441;51.192;6.788;2022-11-15T01:06:36;4.60;;;4.40;;
908;SDS011;441;51.192;6.788;2022-11-15T01:09:03;4.27;;;4.10;;
908;SDS011;441;51.192;6.788;2022-11-15T01:11:30;5.10;;;4.90;;
908;SDS011;441;51.192;6.788;2022-11-15T01:13:58;4.50;;;4.30;;
908;SDS011;441;51.192;6.788;2022-11-15T01:16:25;5.00;;;4.80;;
908;SDS011;441;51.192;6.788;2022-11-15T01:18:52;4.63;;;4.20;;
908;SDS011;441;51.192;6.788;2022-11-15T01:21:19;4.23;;;4.13;;
908;SDS011;441;51.192;6.788;2022-11-15T01:23:46;4.37;;;4.17;;
908;SDS011;441;51.192;6.788;2022-11-15T01:26:14;4.50;;;4.40;;
908;SDS011;441;51.192;6.788;2022-11-15T01:28:41;5.23;;;4.83;;
908;SDS011;441;51.192;6.788;2022-11-15T01:31:11;4.00;;;3.90;;
908;SDS011;441;51.192;6.788;2022-11-15T01:33:40;4.50;;;4.20;;
908;SDS011;441;51.192;6.788;2022-11-15T01:36:10;4.73;;;4.60;;
908;SDS011;441;51.192;6.788;2022-11-15T01:38:38;4.53;;;4.13;;
908;SDS011;441;51.192;6.788;2022-11-15T01:41:05;4.43;;;4.33;;
908;SDS011;441;51.192;6.788;2022-11-15T01:43:34;4.40;;;4.30;;
908;SDS011;441;51.192;6.788;2022-11-15T01:46:04;4.90;;;4.70;;
908;SDS011;441;51.192;6.788;2022-11-15T01:48:43;5.43;;;5.23;;
908;SDS011;441;51.192;6.788;2022-11-15T01:51:11;5.00;;;4.80;;
908;SDS011;441;51.192;6.788;2022-11-15T01:53:42;4.77;;;4.67;;
908;SDS011;441;51.192;6.788;2022-11-15T01:56:13;4.63;;;4.53;;
908;SDS011;441;51.192;6.788;2022-11-15T01:58:45;5.23;;;5.03;;
908;SDS011;441;51.192;6.788;2022-11-15T02:01:12;4.63;;;4.43;;
908;SDS011;441;51.192;6.788;2022-11-15T02:03:41;4.87;;;4.67;;
908;SDS011;441;51.192;6.788;2022-11-15T02:06:15;4.17;;;3.97;;
908;SDS011;441;51.192;6.788;2022-11-15T02:08:42;4.33;;;4.13;;
908;SDS011;441;51.192;6.788;2022-11-15T02:11:10;4.30;;;4.20;;
908;SDS011;441;51.192;6.788;2022-11-15T02:13:37;4.83;;;4.63;;
908;SDS011;441;51.192;6.788;2022-11-15T02:16:06;5.33;;;5.00;;
908;SDS011;441;51.192;6.788;2022-11-15T02:18:39;4.33;;;4.03;;
908;SDS011;441;51.192;6.788;2022-11-15T02:21:14;4.70;;;4.50;;
908;SDS011;441;51.192;6.788;2022-11-15T02:30:00;4.37;;;4.27;;
908;SDS011;441;51.192;6.788;2022-11-15T02:32:44;4.37;;;4.27;;
908;SDS011;441;51.192;6.788;2022-11-15T02:35:16;4.00;;;3.83;;
908;SDS011;441;51.192;6.788;2022-11-15T02:37:54;4.30;;;4.10;;
908;SDS011;441;51.192;6.788;2022-11-15T02:40:27;4.13;;;3.93;;
908;SDS011;441;51.192;6.788;2022-11-15T02:43:04;4.10;;;4.00;;
908;SDS011;441;51.192;6.788;2022-11-15T02:45:55;4.33;;;4.13;;
908;SDS011;441;51.192;6.788;2022-11-15T02:48:28;4.77;;;4.63;;
908;SDS011;441;51.192;6.788;2022-11-15T02:50:57;4.00;;;3.90;;
908;SDS011;441;51.192;6.788;2022-11-15T02:53:25;4.43;;;4.23;;
908;SDS011;441;51.192;6.788;2022-11-15T02:55:53;4.30;;;4.20;;
908;SDS011;441;51.192;6.788;2022-11-15T02:58:32;4.40;;;4.20;;
908;SDS011;441;51.192;6.788;2022-11-15T03:01:22;4.67;;;4.47;;
908;SDS011;441;51.192;6.788;2022-11-15T03:03:59;4.17;;;3.97;;
908;SDS011;441;51.192;6.788;2022-11-15T03:06:38;3.70;;;3.60;;
908;SDS011;441;51.192;6.788;2022-11-15T03:09:12;4.83;;;4.63;;
908;SDS011;441;51.192;6.788;2022-11-15T03:11:48;4.37;;;4.20;;
908;SDS011;441;51.192;6.788;2022-11-15T03:14:23;4.60;;;4.40;;
908;SDS011;441;51.192;6.788;2022-11-15T03:16:58;3.80;;;3.70;;
908;SDS011;441;51.192;6.788;2022-11-15T03:19:32;4.70;;;4.40;;
908;SDS011;441;51.192;6.788;2022-11-15T03:22:04;4.90;;;4.60;;
908;SDS011;441;51.192;6.788;2022-11-15T03:24:35;3.90;;;3.80;;
908;SDS011;441;51.192;6.788;2022-11-15T03:27:04;4.47;;;4.10;;
908;SDS011;441;51.192;6.788;2022-11-15T03:29:36;4.47;;;4.37;;
908;SDS011;441;51.192;6.788;2022-11-15T03:32:07;4.23;;;4.13;;
908;SDS011;441;51.192;6.788;2022-11-15T03:34:39;4.37;;;4.17;;
908;SDS011;441;51.192;6.788;2022-11-15T03:37:11;4.40;;;4.23;;
908;SDS011;441;51.192;6.788;2022-11-15T03:39:40;4.67;;;4.57;;
908;SDS011;441;51.192;6.788;2022-11-15T03:42:12;4.40;;;4.23;;
908;SDS011;441;51.192;6.788;2022-11-15T03:44:46;4.00;;;3.80;;
908;SDS011;441;51.192;6.788;2022-11-15T03:47:23;3.87;;;3.77;;
908;SDS011;441;51.192;6.788;2022-11-15T03:49:55;4.20;;;4.00;;
908;SDS011;441;51.192;6.788;2022-11-15T03:52:30;4.40;;;4.30;;
908;SDS011;441;51.192;6.788;2022-11-15T03:54:59;4.10;;;4.00;;
908;SDS011;441;51.192;6.788;2022-11-15T03:57:29;3.40;;;3.30;;
908;SDS011;441;51.192;6.788;2022-11-15T03:59:56;4.40;;;4.30;;
908;SDS011;441;51.192;6.788;2022-11-15T04:02:24;4.63;;;4.43;;
908;SDS011;441;51.192;6.788;2022-11-15T04:04:51;3.97;;;3.87;;
908;SDS011;441;51.192;6.788;2022-11-15T04:07:19;3.90;;;3.80;;
908;SDS011;441;51.192;6.788;2022-11-15T04:09:45;3.97;;;3.87;;
908;SDS011;441;51.192;6.788;2022-11-15T04:12:31;3.97;;;3.83;;
908;SDS011;441;51.192;6.788;2022-11-15T04:15:02;4.10;;;4.00;;
908;SDS011;441;51.192;6.788;2022-11-15T04:17:35;4.33;;;4.23;;
908;SDS011;441;51.192;6.788;2022-11-15T04:20:06;4.70;;;4.60;;
908;SDS011;441;51.192;6.788;2022-11-15T04:22:53;4.27;;;4.17;;
908;SDS011;441;51.192;6.788;2022-11-15T04:25:37;4.70;;;4.40;;
908;SDS011;441;51.192;6.788;2022-11-15T04:28:04;5.07;;;4.93;;
908;SDS011;441;51.192;6.788;2022-11-15T04:30:31;4.43;;;4.23;;
908;SDS011;441;51.192;6.788;2022-11-15T04:33:00;4.90;;;4.70;;
908;SDS011;441;51.192;6.788;2022-11-15T04:35:28;4.10;;;3.90;;
908;SDS011;441;51.192;6.788;2022-11-15T04:37:57;4.37;;;4.17;;
908;SDS011;441;51.192;6.788;2022-11-15T04:40:25;4.40;;;4.30;;
908;SDS011;441;51.192;6.788;2022-11-15T04:42:51;4.93;;;4.83;;
908;SDS011;441;51.192;6.788;2022-11-15T04:45:18;4.73;;;4.53;;
908;SDS011;441;51.192;6.788;2022-11-15T04:47:46;4.87;;;4.57;;
908;SDS011;441;51.192;6.788;2022-11-15T04:50:15;4.60;;;4.30;;
908;SDS011;441;51.192;6.788;2022-11-15T04:52:43;4.40;;;4.30;;
908;SDS011;441;51.192;6.788;2022-11-15T04:55:17;4.60;;;4.50;;
908;SDS011;441;51.192;6.788;2022-11-15T04:57:44;4.70;;;4.60;;
908;SDS011;441;51.192;6.788;2022-11-15T05:00:12;3.97;;;3.87;;
908;SDS011;441;51.192;6.788;2022-11-15T05:02:41;4.50;;;4.40;;
908;SDS011;441;51.192;6.788;2022-11-15T05:05:27;4.23;;;4.13;;
908;SDS011;441;51.192;6.788;2022-11-15T05:07:54;4.50;;;4.40;;
908;SDS011;441;51.192;6.788;2022-11-15T05:10:22;4.47;;;4.37;;
908;SDS011;441;51.192;6.788;2022-11-15T05:12:49;4.97;;;4.80;;
908;SDS011;441;51.192;6.788;2022-11-15T05:15:16;4.70;;;4.60;;
908;SDS011;441;51.192;6.788;2022-11-15T05:17:43;5.30;;;5.10;;
908;SDS011;441;51.192;6.788;2022-11-15T05:20:10;5.23;;;5.03;;
908;SDS011;441;51.192;6.788;2022-11-15T05:22:39;5.30;;;5.10;;
908;SDS011;441;51.192;6.788;2022-11-15T05:25:08;4.33;;;4.23;;
908;SDS011;441;51.192;6.788;2022-11-15T05:27:36;4.70;;;4.60;;
908;SDS011;441;51.192;6.788;2022-11-15T05:30:03;5.73;;;5.53;;
908;SDS011;441;51.192;6.788;2022-11-15T05:32:30;5.03;;;4.90;;
908;SDS011;441;51.192;6.788;2022-11-15T05:34:57;5.17;;;4.90;;
908;SDS011;441;51.192;6.788;2022-11-15T05:37:25;4.67;;;4.57;;
908;SDS011;441;51.192;6.788;2022-11-15T05:39:53;4.67;;;4.57;;
908;SDS011;441;51.192;6.788;2022-11-15T05:42:20;4.70;;;4.50;;
908;SDS011;441;51.192;6.788;2022-11-15T05:44:48;4.70;;;4.50;;
908;SDS011;441;51.192;6.788;2022-11-15T05:47:17;4.20;;;4.10;;
908;SDS011;441;51.192;6.788;2022-11-15T05:49:47;5.20;;;5.00;;
908;SDS011;441;51.192;6.788;2022-11-15T05:52:17;4.70;;;4.60;;
908;SDS011;441;51.192;6.788;2022-11-15T05:54:48;4.73;;;4.60;;
908;SDS011;441;51.192;6.788;2022-11-15T05:57:18;4.30;;;4.20;;
908;SDS011;441;51.192;6.788;2022-11-15T05:59:44;4.27;;;4.17;;
908;SDS011;441;51.192;6.788;2022-11-15T06:02:11;4.70;;;4.60;;
908;SDS011;441;51.192;6.788;2022-11-15T06:04:39;5.70;;;5.43;;
908;SDS011;441;51.192;6.788;2022-11-15T06:07:06;4.50;;;4.40;;
908;SDS011;441;51.192;6.788;2022-11-15T06:09:33;5.23;;;5.13;;
908;SDS011;441;51.192;6.788;2022-11-15T06:12:00;5.60;;;5.50;;
908;SDS011;441;51.192;6.788;2022-11-15T06:14:29;5.60;;;5.50;;
908;SDS011;441;51.192;6.788;2022-11-15T06:16:57;6.00;;;5.90;;
908;SDS011;441;51.192;6.788;2022-11-15T06:19:23;6.07;;;5.80;;
908;SDS011;441;51.192;6.788;2022-11-15T06:21:50;5.93;;;5.73;;
908;SDS011;441;51.192;6.788;2022-11-15T06:24:17;5.50;;;5.40;;
908;SDS011;441;51.192;6.788;2022-11-15T06:26:44;5.53;;;5.43;;
908;SDS011;441;51.192;6.788;2022-11-15T06:29:11;5.00;;;4.90;;
908;SDS011;441;51.192;6.788;2022-11-15T06:31:40;5.67;;;5.47;;
908;SDS011;441;51.192;6.788;2022-11-15T06:34:08;5.03;;;4.93;;
908;SDS011;441;51.192;6.788;2022-11-15T06:36:35;5.03;;;4.83;;
908;SDS011;441;51.192;6.788;2022-11-15T06:39:03;5.83;;;5.40;;
908;SDS011;441;51.192;6.788;2022-11-15T06:41:33;5.97;;;5.77;;
908;SDS011;441;51.192;6.788;2022-11-15T06:44:01;5.83;;;5.63;;
908;SDS011;441;51.192;6.788;2022-11-15T06:46:28;5.80;;;5.50;;
908;SDS011;441;51.192;6.788;2022-11-15T06:48:56;11.30;;;6.40;;
908;SDS011;441;51.192;6.788;2022-11-15T06:51:23;7.83;;;6.70;;
908;SDS011;441;51.192;6.788;2022-11-15T06:53:50;8.67;;;7.63;;
908;SDS011;441;51.192;6.788;2022-11-15T06:56:18;10.40;;;8.20;;
908;SDS011;441;51.192;6.788;2022-11-15T06:58:45;12.83;;;7.93;;
908;SDS011;441;51.192;6.788;2022-11-15T07:01:13;19.10;;;9.40;;
908;SDS011;441;51.192;6.788;2022-11-15T07:03:41;13.80;;;9.13;;
908;SDS011;441;51.192;6.788;2022-11-15T07:06:11;16.50;;;10.87;;
908;SDS011;441;51.192;6.788;2022-11-15T07:08:38;17.93;;;8.50;;
908;SDS011;441;51.192;6.788;2022-11-15T07:11:06;15.07;;;10.00;;
908;SDS011;441;51.192;6.788;2022-11-15T07:13:34;14.07;;;9.77;;
908;SDS011;441;51.192;6.788;2022-11-15T07:16:02;17.33;;;9.17;;
908;SDS011;441;51.192;6.788;2022-11-15T07:18:30;11.07;;;8.83;;
908;SDS011;441;51.192;6.788;2022-11-15T07:21:00;18.93;;;10.20;;
908;SDS011;441;51.192;6.788;2022-11-15T07:23:29;14.00;;;8.60;;
908;SDS011;441;51.192;6.788;2022-11-15T07:25:58;16.43;;;10.20;;
908;SDS011;441;51.192;6.788;2022-11-15T07:28:26;13.17;;;9.23;;
908;SDS011;441;51.192;6.788;2022-11-15T07:30:53;13.40;;;9.50;;
908;SDS011;441;51.192;6.788;2022-11-15T07:33:21;9.60;;;7.90;;
908;SDS011;441;51.192;6.788;2022-11-15T07:35:47;10.73;;;9.73;;
908;SDS011;441;51.192;6.788;2022-11-15T07:38:15;12.37;;;10.40;;
908;SDS011;441;51.192;6.788;2022-11-15T07:40:47;8.13;;;7.53;;
908;SDS011;441;51.192;6.788;2022-11-15T07:43:21;13.30;;;7.53;;
908;SDS011;441;51.192;6.788;2022-11-15T07:45:48;8.20;;;7.37;;
908;SDS011;441;51.192;6.788;2022-11-15T07:48:15;8.90;;;7.40;;
908;SDS011;441;51.192;6.788;2022-11-15T07:50:45;9.80;;;8.80;;
908;SDS011;441;51.192;6.788;2022-11-15T07:53:12;8.33;;;7.50;;
908;SDS011;441;51.192;6.788;2022-11-15T07:55:39;10.20;;;9.40;;
908;SDS011;441;51.192;6.788;2022-11-15T07:58:09;9.13;;;7.63;;
908;SDS011;441;51.192;6.788;2022-11-15T08:00:37;8.20;;;7.30;;
908;SDS011;441;51.192;6.788;2022-11-15T08:03:06;7.43;;;6.83;;
908;SDS011;441;51.192;6.788;2022-11-15T08:05:35;7.23;;;6.53;;
908;SDS011;441;51.192;6.788;2022-11-15T08:08:04;8.97;;;8.07;;
908;SDS011;441;51.192;6.788;2022-11-15T08:10:33;9.67;;;7.23;;
908;SDS011;441;51.192;6.788;2022-11-15T08:13:01;9.33;;;7.00;;
908;SDS011;441;51.192;6.788;2022-11-15T08:15:31;10.80;;;7.70;;
908;SDS011;441;51.192;6.788;2022-11-15T08:18:00;7.77;;;7.27;;
908;SDS011;441;51.192;6.788;2022-11-15T08:20:29;7.67;;;7.17;;
908;SDS011;441;51.192;6.788;2022-11-15T08:22:59;8.50;;;7.70;;
908;SDS011;441;51.192;6.788;2022-11-15T08:25:28;9.63;;;7.70;;
908;SDS011;441;51.192;6.788;2022-11-15T08:27:57;9.27;;;8.47;;
908;SDS011;441;51.192;6.788;2022-11-15T08:30:25;8.13;;;7.10;;
908;SDS011;441;51.192;6.788;2022-11-15T08:32:55;8.80;;;6.93;;
908;SDS011;441;51.192;6.788;2022-11-15T08:35:23;7.23;;;6.47;;
908;SDS011;441;51.192;6.788;2022-11-15T08:37:51;8.87;;;8.20;;
908;SDS011;441;51.192;6.788;2022-11-15T08:40:19;8.93;;;7.53;;
908;SDS011;441;51.192;6.788;2022-11-15T08:42:47;7.67;;;7.07;;
908;SDS011;441;51.192;6.788;2022-11-15T08:45:16;7.93;;;7.13;;
908;SDS011;441;51.192;6.788;2022-11-15T08:47:42;7.43;;;6.73;;
908;SDS011;441;51.192;6.788;2022-11-15T08:50:11;8.50;;;7.97;;
908;SDS011;441;51.192;6.788;2022-11-15T08:52:38;8.73;;;7.80;;
908;SDS011;441;51.192;6.788;2022-11-15T08:55:05;7.33;;;6.80;;
908;SDS011;441;51.192;6.788;2022-11-15T08:57:33;7.37;;;6.93;;
908;SDS011;441;51.192;6.788;2022-11-15T08:59:59;11.03;;;7.43;;
908;SDS011;441;51.192;6.788;2022-11-15T09:02:26;6.80;;;6.30;;
908;SDS011;441;51.192;6.788;2022-11-15T09:04:53;6.73;;;6.23;;
908;SDS011;441;51.192;6.788;2022-11-15T09:07:22;8.23;;;7.47;;
908;SDS011;441;51.192;6.788;2022-11-15T09:09:49;8.60;;;8.00;;
908;SDS011;441;51.192;6.788;2022-11-15T09:12:16;7.90;;;7.30;;
908;SDS011;441;51.192;6.788;2022-11-15T09:14:43;7.63;;;7.03;;
908;SDS011;441;51.192;6.788;2022-11-15T09:17:10;7.23;;;6.57;;
908;SDS011;441;51.192;6.788;2022-11-15T09:19:37;7.50;;;7.00;;
908;SDS011;441;51.192;6.788;2022-11-15T09:22:05;8.30;;;7.60;;
908;SDS011;441;51.192;6.788;2022-11-15T09:24:33;8.30;;;7.70;;
908;SDS011;441;51.192;6.788;2022-11-15T09:27:00;7.07;;;6.70;;
908;SDS011;441;51.192;6.788;2022-11-15T09:29:27;10.20;;;7.50;;
908;SDS011;441;51.192;6.788;2022-11-15T09:31:54;6.20;;;5.60;;
908;SDS011;441;51.192;6.788;2022-11-15T09:34:21;7.73;;;7.07;;
908;SDS011;441;51.192;6.788;2022-11-15T09:36:48;6.77;;;6.27;;
908;SDS011;441;51.192;6.788;2022-11-15T09:39:14;8.80;;;8.00;;
908;SDS011;441;51.192;6.788;2022-11-15T09:44:54;7.33;;;6.63;;
908;SDS011;441;51.192;6.788;2022-11-15T09:47:38;7.23;;;6.53;;
908;SDS011;441;51.192;6.788;2022-11-15T09:50:27;16.87;;;7.23;;
908;SDS011;441;51.192;6.788;2022-11-15T09:52:58;7.10;;;6.40;;
908;SDS011;441;51.192;6.788;2022-11-15T09:55:27;7.60;;;6.30;;
908;SDS011;441;51.192;6.788;2022-11-15T09:58:03;7.90;;;7.10;;
908;SDS011;441;51.192;6.788;2022-11-15T10:00:42;7.37;;;6.97;;
908;SDS011;441;51.192;6.788;2022-11-15T10:03:18;7.03;;;6.37;;
908;SDS011;441;51.192;6.788;2022-11-15T10:05:50;7.03;;;6.47;;
908;SDS011;441;51.192;6.788;2022-11-15T10:08:25;7.03;;;6.60;;
908;SDS011;441;51.192;6.788;2022-11-15T10:11:01;7.13;;;6.53;;
908;SDS011;441;51.192;6.788;2022-11-15T10:13:33;6.70;;;6.40;;
908;SDS011;441;51.192;6.788;2022-11-15T10:16:04;7.07;;;6.53;;
908;SDS011;441;51.192;6.788;2022-11-15T10:18:56;7.10;;;6.60;;
908;SDS011;441;51.192;6.788;2022-11-15T10:21:34;7.83;;;7.00;;
908;SDS011;441;51.192;6.788;2022-11-15T10:24:13;11.10;;;6.67;;
908;SDS011;441;51.192;6.788;2022-11-15T10:26:46;7.70;;;6.83;;
908;SDS011;441;51.192;6.788;2022-11-15T10:29:19;6.67;;;6.10;;
908;SDS011;441;51.192;6.788;2022-11-15T10:31:46;6.70;;;6.30;;
908;SDS011;441;51.192;6.788;2022-11-15T10:34:17;11.07;;;7.03;;
908;SDS011;441;51.192;6.788;2022-11-15T10:36:45;8.13;;;7.43;;
908;SDS011;441;51.192;6.788;2022-11-15T10:39:13;7.27;;;6.90;;
908;SDS011;441;51.192;6.788;2022-11-15T10:41:41;6.77;;;6.47;;
908;SDS011;441;51.192;6.788;2022-11-15T10:44:17;6.47;;;5.97;;
908;SDS011;441;51.192;6.788;2022-11-15T10:47:03;6.87;;;6.53;;
908;SDS011;441;51.192;6.788;2022-11-15T10:49:32;8.17;;;6.57;;
908;SDS011;441;51.192;6.788;2022-11-15T10:52:02;6.90;;;6.50;;
908;SDS011;441;51.192;6.788;2022-11-15T10:54:40;6.60;;;6.30;;
908;SDS011;441;51.192;6.788;2022-11-15T10:57:12;6.50;;;6.00;;
908;SDS011;441;51.192;6.788;2022-11-15T10:59:44;6.87;;;6.53;;
908;SDS011;441;51.192;6.788;2022-11-15T11:02:29;7.23;;;6.67;;
908;SDS011;441;51.192;6.788;2022-11-15T11:05:00;6.70;;;6.30;;
908;SDS011;441;51.192;6.788;2022-11-15T11:07:29;6.90;;;6.27;;
908;SDS011;441;51.192;6.788;2022-11-15T11:09:58;6.77;;;6.13;;
908;SDS011;441;51.192;6.788;2022-11-15T11:12:27;5.97;;;5.77;;
908;SDS011;441;51.192;6.788;2022-11-15T11:14:58;6.77;;;6.40;;
908;SDS011;441;51.192;6.788;2022-11-15T11:17:29;6.27;;;5.97;;
908;SDS011;441;51.192;6.788;2022-11-15T11:20:08;6.10;;;5.90;;
908;SDS011;441;51.192;6.788;2022-11-15T11:22:40;7.90;;;7.10;;
908;SDS011;441;51.192;6.788;2022-11-15T11:25:18;5.80;;;5.50;;
908;SDS011;441;51.192;6.788;2022-11-15T11:27:55;5.70;;;5.53;;
908;SDS011;441;51.192;6.788;2022-11-15T11:30:33;5.70;;;5.50;;
908;SDS011;441;51.192;6.788;2022-11-15T11:33:10;6.50;;;6.30;;
908;SDS011;441;51.192;6.788;2022-11-15T11:35:48;6.70;;;6.10;;
908;SDS011;441;51.192;6.788;2022-11-15T11:41:26;5.93;;;5.70;;
908;SDS011;441;51.192;6.788;2022-11-15T11:44:10;6.43;;;6.13;;
908;SDS011;441;51.192;6.788;2022-11-15T11:46:49;5.27;;;5.10;;
908;SDS011;441;51.192;6.788;2022-11-15T11:49:23;5.67;;;5.47;;
908;SDS011;441;51.192;6.788;2022-11-15T11:51:58;5.83;;;5.73;;
908;SDS011;441;51.192;6.788;2022-11-15T11:54:31;5.70;;;5.50;;
908;SDS011;441;51.192;6.788;2022-11-15T11:57:05;6.03;;;5.83;;
908;SDS011;441;51.192;6.788;2022-11-15T11:59:41;6.53;;;6.33;;
908;SDS011;441;51.192;6.788;2022-11-15T12:02:14;5.70;;;5.43;;
908;SDS011;441;51.192;6.788;2022-11-15T12:04:47;6.13;;;5.63;;
908;SDS011;441;51.192;6.788;2022-11-15T12:07:20;6.90;;;6.50;;
908;SDS011;441;51.192;6.788;2022-11-15T12:09:52;5.43;;;5.23;;
908;SDS011;441;51.192;6.788;2022-11-15T12:12:25;5.67;;;5.57;;
908;SDS011;441;51.192;6.788;2022-11-15T12:14:59;5.20;;;5.00;;
908;SDS011;441;51.192;6.788;2022-11-15T12:17:30;5.83;;;5.73;;
908;SDS011;441;51.192;6.788;2022-11-15T12:19:58;5.90;;;5.70;;
908;SDS011;441;51.192;6.788;2022-11-15T12:22:33;5.90;;;5.70;;
908;SDS011;441;51.192;6.788;2022-11-15T12:25:06;5.67;;;5.57;;
908;SDS011;441;51.192;6.788;2022-11-15T12:27:40;6.43;;;6.13;;
908;SDS011;441;51.192;6.788;2022-11-15T12:30:11;5.97;;;5.77;;
908;SDS011;441;51.192;6.788;2022-11-15T12:32:49;5.30;;;5.10;;
908;SDS011;441;51.192;6.788;2022-11-15T12:35:30;5.80;;;5.60;;
908;SDS011;441;51.192;6.788;2022-11-15T12:38:02;5.33;;;5.23;;
908;SDS011;441;51.192;6.788;2022-11-15T12:40:30;5.73;;;5.60;;
908;SDS011;441;51.192;6.788;2022-11-15T12:43:32;5.20;;;5.10;;
908;SDS011;441;51.192;6.788;2022-11-15T12:46:10;5.20;;;5.00;;
908;SDS011;441;51.192;6.788;2022-11-15T12:57:27;4.97;;;4.87;;
908;SDS011;441;51.192;6.788;2022-11-15T12:59:57;5.50;;;5.40;;
908;SDS011;441;51.192;6.788;2022-11-15T13:02:27;5.37;;;5.27;;
908;SDS011;441;51.192;6.788;2022-11-15T13:20:17;5.10;;;4.90;;
908;SDS011;441;51.192;6.788;2022-11-15T13:22:48;5.40;;;5.30;;
908;SDS011;441;51.192;6.788;2022-11-15T13:28:30;4.90;;;4.80;;
908;SDS011;441;51.192;6.788;2022-11-15T13:31:00;5.30;;;5.20;;
908;SDS011;441;51.192;6.788;2022-11-15T13:33:30;5.13;;;4.83;;
908;SDS011;441;51.192;6.788;2022-11-15T13:36:01;5.07;;;4.97;;
908;SDS011;441;51.192;6.788;2022-11-15T13:38:33;5.57;;;5.47;;
908;SDS011;441;51.192;6.788;2022-11-15T13:41:10;5.77;;;5.60;;
908;SDS011;441;51.192;6.788;2022-11-15T13:43:43;5.97;;;5.77;;
908;SDS011;441;51.192;6.788;2022-11-15T13:46:12;5.07;;;4.97;;
908;SDS011;441;51.192;6.788;2022-11-15T13:48:40;4.90;;;4.80;;
908;SDS011;441;51.192;6.788;2022-11-15T13:51:12;5.20;;;5.10;;
908;SDS011;441;51.192;6.788;2022-11-15T13:53:48;4.93;;;4.83;;
908;SDS011;441;51.192;6.788;2022-11-15T13:56:20;4.80;;;4.70;;
908;SDS011;441;51.192;6.788;2022-11-15T13:58:48;5.07;;;4.97;;
908;SDS011;441;51.192;6.788;2022-11-15T14:01:16;5.07;;;4.97;;
908;SDS011;441;51.192;6.788;2022-11-15T14:03:49;5.20;;;5.10;;
908;SDS011;441;51.192;6.788;2022-11-15T14:06:21;4.80;;;4.70;;
908;SDS011;441;51.192;6.788;2022-11-15T14:09:16;4.83;;;4.73;;
908;SDS011;441;51.192;6.788;2022-11-15T14:11:59;4.70;;;4.60;;
908;SDS011;441;51.192;6.788;2022-11-15T14:14:28;4.50;;;4.40;;
908;SDS011;441;51.192;6.788;2022-11-15T14:16:58;5.30;;;5.10;;
908;SDS011;441;51.192;6.788;2022-11-15T14:19:39;4.83;;;4.73;;
908;SDS011;441;51.192;6.788;2022-11-15T14:22:18;5.27;;;5.17;;
908;SDS011;441;51.192;6.788;2022-11-15T14:30:41;4.73;;;4.63;;
908;SDS011;441;51.192;6.788;2022-11-15T14:33:17;4.40;;;4.30;;
908;SDS011;441;51.192;6.788;2022-11-15T14:35:49;4.40;;;4.30;;
908;SDS011;441;51.192;6.788;2022-11-15T14:38:17;4.90;;;4.80;;
908;SDS011;441;51.192;6.788;2022-11-15T14:40:44;4.60;;;4.50;;
908;SDS011;441;51.192;6.788;2022-11-15T14:43:11;4.53;;;4.43;;
908;SDS011;441;51.192;6.788;2022-11-15T14:45:39;4.60;;;4.50;;
908;SDS011;441;51.192;6.788;2022-11-15T14:48:06;5.10;;;5.00;;
908;SDS011;441;51.192;6.788;2022-11-15T14:50:34;5.57;;;5.37;;
908;SDS011;441;51.192;6.788;2022-11-15T14:53:01;4.73;;;4.57;;
908;SDS011;441;51.192;6.788;2022-11-15T14:55:31;4.90;;;4.80;;
908;SDS011;441;51.192;6.788;2022-11-15T14:58:00;4.37;;;4.27;;
908;SDS011;441;51.192;6.788;2022-11-15T15:00:29;4.40;;;4.30;;
908;SDS011;441;51.192;6.788;2022-11-15T15:02:56;4.57;;;4.47;;
908;SDS011;441;51.192;6.788;2022-11-15T15:05:23;4.90;;;4.80;;
908;SDS011;441;51.192;6.788;2022-11-15T15:07:52;4.17;;;4.07;;
908;SDS011;441;51.192;6.788;2022-11-15T15:10:19;4.50;;;4.40;;
908;SDS011;441;51.192;6.788;2022-11-15T15:12:48;4.10;;;4.00;;
908;SDS011;441;51.192;6.788;2022-11-15T15:15:16;4.77;;;4.67;;
908;SDS011;441;51.192;6.788;2022-11-15T15:17:45;4.63;;;4.53;;
908;SDS011;441;51.192;6.788;2022-11-15T15:20:13;4.73;;;4.63;;
908;SDS011;441;51.192;6.788;2022-11-15T15:22:40;4.40;;;4.30;;
908;SDS011;441;51.192;6.788;2022-11-15T15:25:14;4.70;;;4.60;;
908;SDS011;441;51.192;6.788;2022-11-15T15:27:48;5.10;;;5.00;;
908;SDS011;441;51.192;6.788;2022-11-15T15:30:16;4.97;;;4.87;;
908;SDS011;441;51.192;6.788;2022-11-15T15:32:43;4.73;;;4.63;;
908;SDS011;441;51.192;6.788;2022-11-15T15:35:11;5.37;;;5.27;;
908;SDS011;441;51.192;6.788;2022-11-15T15:37:39;5.00;;;4.90;;
908;SDS011;441;51.192;6.788;2022-11-15T15:40:10;5.03;;;4.93;;
908;SDS011;441;51.192;6.788;2022-11-15T15:42:41;4.40;;;4.30;;
908;SDS011;441;51.192;6.788;2022-11-15T15:45:10;5.00;;;4.80;;
908;SDS011;441;51.192;6.788;2022-11-15T15:47:37;4.53;;;4.43;;
908;SDS011;441;51.192;6.788;2022-11-15T15:50:09;4.83;;;4.73;;
908;SDS011;441;51.192;6.788;2022-11-15T15:52:43;4.80;;;4.70;;
908;SDS011;441;51.192;6.788;2022-11-15T15:55:10;5.03;;;4.93;;
908;SDS011;441;51.192;6.788;2022-11-15T15:57:38;4.93;;;4.83;;
908;SDS011;441;51.192;6.788;2022-11-15T16:00:06;4.83;;;4.73;;
908;SDS011;441;51.192;6.788;2022-11-15T16:02:36;5.73;;;5.47;;
908;SDS011;441;51.192;6.788;2022-11-15T16:05:03;6.30;;;6.10;;
908;SDS011;441;51.192;6.788;2022-11-15T16:07:30;5.40;;;5.30;;
908;SDS011;441;51.192;6.788;2022-11-15T16:09:58;4.90;;;4.70;;
908;SDS011;441;51.192;6.788;2022-11-15T16:12:28;5.77;;;5.37;;
908;SDS011;441;51.192;6.788;2022-11-15T16:14:56;4.93;;;4.70;;
908;SDS011;441;51.192;6.788;2022-11-15T16:17:24;4.60;;;4.40;;
908;SDS011;441;51.192;6.788;2022-11-15T16:19:54;5.07;;;4.93;;
908;SDS011;441;51.192;6.788;2022-11-15T16:22:21;4.70;;;4.60;;
908;SDS011;441;51.192;6.788;2022-11-15T16:24:48;5.13;;;5.03;;
908;SDS011;441;51.192;6.788;2022-11-15T16:27:17;5.60;;;5.50;;
908;SDS011;441;51.192;6.788;2022-11-15T16:29:46;6.40;;;6.20;;
908;SDS011;441;51.192;6.788;2022-11-15T16:32:13;4.83;;;4.73;;
908;SDS011;441;51.192;6.788;2022-11-15T16:34:41;5.33;;;5.23;;
908;SDS011;441;51.192;6.788;2022-11-15T16:37:10;5.97;;;5.77;;
908;SDS011;441;51.192;6.788;2022-11-15T16:39:47;5.53;;;5.30;;
908;SDS011;441;51.192;6.788;2022-11-15T16:42:14;4.90;;;4.80;;
908;SDS011;441;51.192;6.788;2022-11-15T16:44:41;5.97;;;5.77;;
908;SDS011;441;51.192;6.788;2022-11-15T16:47:11;5.77;;;5.57;;
908;SDS011;441;51.192;6.788;2022-11-15T16:49:42;5.10;;;5.00;;